createdAt,value
2022-09-12T00:01:22.408Z,15.16
2022-09-12T00:03:55.722Z,15.15
2022-09-12T00:06:32.841Z,15.21
2022-09-12T00:09:05.768Z,15.31
2022-09-12T00:11:42.659Z,15.34
2022-09-12T00:14:14.999Z,15.35
2022-09-12T00:19:59.221Z,15.41
2022-09-12T00:22:26.988Z,15.45
2022-09-12T00:24:56.168Z,15.42
2022-09-12T00:27:25.078Z,15.47
2022-09-12T00:29:54.668Z,15.48
2022-09-12T00:32:22.917Z,15.56
2022-09-12T00:34:51.732Z,15.67
2022-09-12T00:37:19.968Z,15.64
2022-09-12T00:39:51.148Z,15.61
2022-09-12T00:42:18.943Z,15.63
2022-09-12T00:44:51.174Z,15.65
2022-09-12T00:47:33.251Z,15.75
2022-09-12T00:50:16.434Z,15.79
2022-09-12T00:52:58.144Z,15.83
2022-09-12T00:55:41.778Z,15.69
2022-09-12T00:58:17.108Z,15.55
2022-09-12T01:00:47.623Z,15.46
2022-09-12T01:03:20.119Z,15.56
2022-09-12T01:06:16.473Z,15.46
2022-09-12T01:08:48.417Z,15.36
2022-09-12T01:11:28.719Z,15.51
2022-09-12T01:13:58.113Z,15.45
2022-09-12T01:16:27.860Z,15.39
2022-09-12T01:19:22.051Z,15.36
2022-09-12T01:22:11.376Z,15.46
2022-09-12T01:24:53.553Z,15.31
2022-09-12T01:27:39.672Z,15.33
2022-09-12T01:30:32.166Z,15.31
2022-09-12T01:33:30.691Z,15.27
2022-09-12T01:36:36.647Z,15.41
2022-09-12T01:39:13.107Z,15.52
2022-09-12T01:42:17.943Z,15.32
2022-09-12T01:45:05.769Z,15.38
2022-09-12T01:48:06.304Z,15.34
2022-09-12T01:50:44.545Z,15.33
2022-09-12T01:53:49.063Z,15.34
2022-09-12T01:56:23.198Z,15.32
2022-09-12T01:58:55.262Z,15.42
2022-09-12T02:01:28.301Z,15.40
2022-09-12T02:04:12.105Z,15.45
2022-09-12T02:07:13.458Z,15.38
2022-09-12T02:10:09.730Z,15.40
2022-09-12T02:12:45.474Z,15.52
2022-09-12T02:15:18.754Z,15.45
2022-09-12T02:17:53.310Z,15.46
2022-09-12T02:20:47.913Z,15.49
2022-09-12T02:23:27.202Z,15.45
2022-09-12T02:26:01.809Z,15.49
2022-09-12T02:28:41.130Z,15.55
2022-09-12T02:31:29.053Z,15.49
2022-09-12T02:34:33.979Z,15.51
2022-09-12T02:37:19.406Z,15.51
2022-09-12T02:39:47.987Z,15.51
2022-09-12T02:42:17.319Z,15.56
2022-09-12T02:44:46.077Z,15.56
2022-09-12T02:47:43.105Z,15.53
2022-09-12T02:50:11.089Z,15.56
2022-09-12T02:52:41.563Z,15.57
2022-09-12T02:55:14.811Z,15.60
2022-09-12T02:57:43.523Z,15.65
2022-09-12T03:00:12.951Z,15.65
2022-09-12T03:03:12.836Z,15.66
2022-09-12T03:05:59.984Z,15.66
2022-09-12T03:09:14.577Z,15.69
2022-09-12T03:12:21.701Z,15.75
2022-09-12T03:15:20.102Z,15.86
2022-09-12T03:18:31.513Z,15.84
2022-09-12T03:21:17.336Z,15.75
2022-09-12T03:24:03.988Z,15.78
2022-09-12T03:26:41.232Z,15.78
2022-09-12T03:29:13.411Z,15.87
2022-09-12T03:31:57.441Z,15.94
2022-09-12T03:34:28.196Z,15.88
2022-09-12T03:36:57.366Z,15.91
2022-09-12T03:39:27.143Z,15.96
2022-09-12T03:41:55.845Z,15.88
2022-09-12T03:44:25.660Z,15.95
2022-09-12T03:46:54.272Z,16.03
2022-09-12T03:49:21.984Z,16.15
2022-09-12T03:51:50.612Z,16.03
2022-09-12T03:54:22.071Z,16.00
2022-09-12T03:56:53.195Z,16.05
2022-09-12T03:59:22.062Z,16.11
2022-09-12T04:01:50.007Z,16.05
2022-09-12T04:04:21.971Z,16.00
2022-09-12T04:06:51.053Z,15.92
2022-09-12T04:09:21.667Z,15.98
2022-09-12T04:11:50.105Z,16.04
2022-09-12T04:14:19.072Z,16.01
2022-09-12T04:16:48.191Z,15.99
2022-09-12T04:19:21.457Z,15.96
2022-09-12T04:21:51.227Z,15.99
2022-09-12T04:24:21.277Z,16.02
2022-09-12T04:26:52.181Z,15.99
2022-09-12T04:29:21.199Z,15.92
2022-09-12T04:31:52.107Z,15.85
2022-09-12T04:34:21.240Z,15.92
2022-09-12T04:36:50.055Z,15.95
2022-09-12T04:39:18.122Z,16.02
2022-09-12T04:41:47.667Z,16.10
2022-09-12T04:44:16.276Z,16.10
2022-09-12T04:46:47.980Z,15.95
2022-09-12T04:49:16.978Z,15.89
2022-09-12T04:51:46.791Z,15.80
2022-09-12T04:54:17.586Z,15.76
2022-09-12T04:56:51.564Z,15.92
2022-09-12T04:59:21.764Z,15.79
2022-09-12T05:01:51.500Z,15.70
2022-09-12T05:04:20.406Z,15.53
2022-09-12T05:06:52.246Z,15.55
2022-09-12T05:09:21.312Z,15.70
2022-09-12T05:12:07.897Z,15.74
2022-09-12T05:14:41.404Z,15.69
2022-09-12T05:17:10.003Z,15.72
2022-09-12T05:19:39.434Z,15.71
2022-09-12T05:22:10.035Z,15.64
2022-09-12T05:24:58.509Z,15.58
2022-09-12T05:27:28.950Z,15.52
2022-09-12T05:29:57.793Z,15.48
2022-09-12T05:32:29.623Z,15.45
2022-09-12T05:34:59.480Z,15.36
2022-09-12T05:37:28.979Z,15.54
2022-09-12T05:40:00.287Z,15.40
2022-09-12T05:42:33.190Z,15.49
2022-09-12T05:45:02.234Z,15.31
2022-09-12T05:47:31.101Z,15.20
2022-09-12T05:50:00.112Z,15.27
2022-09-12T05:52:29.527Z,15.28
2022-09-12T05:54:58.010Z,15.19
2022-09-12T05:57:29.563Z,15.16
2022-09-12T05:59:58.540Z,15.13
2022-09-12T06:02:30.763Z,15.07
2022-09-12T06:04:58.894Z,15.11
2022-09-12T06:07:28.977Z,15.09
2022-09-12T06:09:57.026Z,15.11
2022-09-12T06:12:30.829Z,15.32
2022-09-12T06:14:59.969Z,15.40
2022-09-12T06:17:27.913Z,15.41
2022-09-12T06:19:57.292Z,15.51
2022-09-12T06:22:26.034Z,15.78
2022-09-12T06:24:58.544Z,15.74
2022-09-12T06:27:27.062Z,15.72
2022-09-12T06:29:54.978Z,15.79
2022-09-12T06:32:22.919Z,15.86
2022-09-12T06:34:53.543Z,15.93
2022-09-12T06:37:22.554Z,16.04
2022-09-12T06:39:51.965Z,16.25
2022-09-12T06:42:23.936Z,16.40
2022-09-12T06:44:52.248Z,16.43
2022-09-12T06:47:23.746Z,16.54
2022-09-12T06:50:02.820Z,16.64
2022-09-12T06:52:30.932Z,16.64
2022-09-12T06:55:00.556Z,16.57
2022-09-12T06:57:33.118Z,16.41
2022-09-12T07:00:04.605Z,16.31
2022-09-12T07:02:33.085Z,16.35
2022-09-12T07:05:04.890Z,16.41
2022-09-12T07:07:36.704Z,16.48
2022-09-12T07:10:07.589Z,16.60
2022-09-12T07:12:36.380Z,16.67
2022-09-12T07:15:07.465Z,16.76
2022-09-12T07:17:39.566Z,16.89
2022-09-12T07:20:08.586Z,16.97
2022-09-12T07:22:47.634Z,16.99
2022-09-12T07:25:27.169Z,17.14
2022-09-12T07:27:58.004Z,17.23
2022-09-12T07:30:38.426Z,17.18
2022-09-12T07:33:08.067Z,17.29
2022-09-12T07:35:38.585Z,17.37
2022-09-12T07:38:10.410Z,17.42
2022-09-12T07:40:41.018Z,17.48
2022-09-12T07:43:23.581Z,17.46
2022-09-12T07:45:57.910Z,17.51
2022-09-12T07:48:28.427Z,17.57
2022-09-12T07:51:05.554Z,17.62
2022-09-12T07:53:39.961Z,17.69
2022-09-12T07:56:11.161Z,17.61
2022-09-12T07:58:44.254Z,17.72
2022-09-12T08:01:21.534Z,17.75
2022-09-12T08:03:57.193Z,17.89
2022-09-12T08:06:28.061Z,17.88
2022-09-12T08:08:59.661Z,17.85
2022-09-12T08:11:37.103Z,18.00
2022-09-12T08:14:06.610Z,18.12
2022-09-12T08:16:43.439Z,18.28
2022-09-12T08:24:51.001Z,18.11
2022-09-12T08:27:19.015Z,18.07
2022-09-12T08:29:50.940Z,18.08
2022-09-12T08:32:30.251Z,18.19
2022-09-12T08:35:07.507Z,18.26
2022-09-12T08:37:40.157Z,18.36
2022-09-12T08:40:19.391Z,18.53
2022-09-12T08:43:17.891Z,18.57
2022-09-12T08:46:05.849Z,18.49
2022-09-12T08:48:45.566Z,18.50
2022-09-12T08:51:19.677Z,18.62
2022-09-12T08:54:00.250Z,18.73
2022-09-12T08:56:38.695Z,18.76
2022-09-12T08:59:12.114Z,18.65
2022-09-12T09:01:58.579Z,18.80
2022-09-12T09:04:53.010Z,18.89
2022-09-12T09:07:51.300Z,18.91
2022-09-12T09:10:45.813Z,18.96
2022-09-12T09:14:10.450Z,18.92
2022-09-12T09:16:58.723Z,19.06
2022-09-12T09:19:37.879Z,19.44
2022-09-12T09:22:22.605Z,19.66
2022-09-12T09:24:56.922Z,19.98
2022-09-12T09:28:26.585Z,20.33
2022-09-12T09:31:04.175Z,20.39
2022-09-12T09:33:47.233Z,20.69
2022-09-12T09:37:03.957Z,20.68
2022-09-12T09:40:14.483Z,20.86
2022-09-12T09:43:16.705Z,21.17
2022-09-12T09:45:48.118Z,21.46
2022-09-12T09:48:44.793Z,21.49
2022-09-12T09:51:43.843Z,21.70
2022-09-12T09:54:51.644Z,22.06
2022-09-12T09:57:42.786Z,22.21
2022-09-12T10:00:39.112Z,22.55
2022-09-12T10:03:30.702Z,22.53
2022-09-12T10:06:34.590Z,22.32
2022-09-12T10:09:19.435Z,22.35
2022-09-12T10:11:50.053Z,22.03
2022-09-12T10:14:42.309Z,22.42
2022-09-12T10:17:50.891Z,22.75
2022-09-12T10:20:50.761Z,22.92
2022-09-12T10:23:41.577Z,23.29
2022-09-12T10:26:14.183Z,23.46
2022-09-12T10:28:46.989Z,23.41
2022-09-12T10:31:32.917Z,23.07
2022-09-12T10:34:01.369Z,22.43
2022-09-12T10:36:41.884Z,22.20
2022-09-12T10:39:19.462Z,22.35
2022-09-12T10:41:50.558Z,22.42
2022-09-12T10:44:26.709Z,22.51
2022-09-12T10:47:01.072Z,22.39
2022-09-12T10:49:33.390Z,22.19
2022-09-12T10:52:27.606Z,22.06
2022-09-12T10:54:57.029Z,21.82
2022-09-12T10:58:22.744Z,22.02
2022-09-12T11:01:06.238Z,22.02
2022-09-12T11:03:56.846Z,22.27
2022-09-12T11:07:04.453Z,22.40
2022-09-12T11:10:12.077Z,22.54
2022-09-12T11:13:18.768Z,22.57
2022-09-12T11:16:27.941Z,22.58
2022-09-12T11:22:12.405Z,22.60
2022-09-12T11:25:00.475Z,22.70
2022-09-12T11:28:01.211Z,22.97
2022-09-12T11:30:45.333Z,23.05
2022-09-12T11:33:28.300Z,22.99
2022-09-12T11:35:58.209Z,22.92
2022-09-12T11:39:11.126Z,22.96
2022-09-12T11:41:50.985Z,22.84
2022-09-12T11:44:43.468Z,22.97
2022-09-12T11:47:14.706Z,23.09
2022-09-12T11:50:00.471Z,23.09
2022-09-12T11:52:51.888Z,23.27
2022-09-12T11:55:36.736Z,23.22
2022-09-12T11:58:11.717Z,23.08
2022-09-12T12:01:18.632Z,23.11
2022-09-12T12:03:49.689Z,23.10
2022-09-12T12:06:28.137Z,23.07
2022-09-12T12:09:07.614Z,23.08
2022-09-12T12:11:54.820Z,23.15
2022-09-12T12:14:36.080Z,23.05
2022-09-12T12:17:18.222Z,23.21
2022-09-12T12:20:09.474Z,23.25
2022-09-12T12:22:39.309Z,23.17
2022-09-12T12:25:40.016Z,23.27
2022-09-12T12:28:13.062Z,23.28
2022-09-12T12:31:02.262Z,23.26
2022-09-12T12:33:42.182Z,23.17
2022-09-12T12:36:33.438Z,23.18
2022-09-12T12:39:41.546Z,22.83
2022-09-12T12:42:09.820Z,22.83
2022-09-12T12:44:52.740Z,22.51
2022-09-12T12:47:25.893Z,22.53
2022-09-12T12:50:21.994Z,22.65
2022-09-12T12:53:04.834Z,22.84
2022-09-12T12:55:51.641Z,22.96
2022-09-12T13:01:23.906Z,22.99
2022-09-12T13:04:06.537Z,23.10
2022-09-12T13:06:45.380Z,23.10
2022-09-12T13:09:25.221Z,23.27
2022-09-12T13:12:08.141Z,23.33
2022-09-12T13:14:47.193Z,23.33
2022-09-12T13:17:32.634Z,23.24
2022-09-12T13:20:33.458Z,23.16
2022-09-12T13:23:02.162Z,23.33
2022-09-12T13:25:36.836Z,23.11
2022-09-12T13:28:13.109Z,23.03
2022-09-12T13:30:45.229Z,23.08
2022-09-12T13:33:37.034Z,23.03
2022-09-12T13:36:57.821Z,22.99
2022-09-12T13:40:08.856Z,22.72
2022-09-12T13:43:19.769Z,22.78
2022-09-12T13:45:49.417Z,22.75
2022-09-12T13:48:24.424Z,22.49
2022-09-12T13:51:05.655Z,22.29
2022-09-12T13:53:48.470Z,22.26
2022-09-12T13:56:21.170Z,22.18
2022-09-12T13:59:13.819Z,22.16
2022-09-12T14:01:48.116Z,22.21
2022-09-12T14:05:01.907Z,22.20
2022-09-12T14:07:33.156Z,22.20
2022-09-12T14:10:02.434Z,22.14
2022-09-12T14:12:46.483Z,22.10
2022-09-12T14:15:30.105Z,22.05
2022-09-12T14:18:06.458Z,22.12
2022-09-12T14:20:40.151Z,22.11
2022-09-12T14:23:30.283Z,21.95
2022-09-12T14:26:06.595Z,21.80
2022-09-12T14:28:37.894Z,21.66
2022-09-12T14:31:25.382Z,21.65
2022-09-12T14:33:57.178Z,21.63
2022-09-12T14:36:50.152Z,21.50
2022-09-12T14:39:32.908Z,21.53
2022-09-12T14:42:23.296Z,21.33
2022-09-12T14:45:16.481Z,21.39
2022-09-12T14:48:04.264Z,21.45
2022-09-12T14:50:36.151Z,21.40
2022-09-12T14:53:29.181Z,21.34
2022-09-12T14:56:16.529Z,21.42
2022-09-12T14:58:55.387Z,21.35
2022-09-12T15:01:25.646Z,21.21
2022-09-12T15:03:59.627Z,21.13
2022-09-12T15:06:42.166Z,21.05
2022-09-12T15:09:25.701Z,20.99
2022-09-12T15:12:01.091Z,21.02
2022-09-12T15:14:31.457Z,20.85
2022-09-12T15:17:07.020Z,20.65
2022-09-12T15:19:36.732Z,20.55
2022-09-12T15:22:05.424Z,20.55
2022-09-12T15:24:36.028Z,20.46
2022-09-12T15:27:11.930Z,20.44
2022-09-12T15:29:41.115Z,20.27
2022-09-12T15:32:23.578Z,20.20
2022-09-12T15:35:06.216Z,20.14
2022-09-12T15:37:36.492Z,20.20
2022-09-12T15:40:17.306Z,20.34
2022-09-12T15:42:47.653Z,20.18
2022-09-12T15:45:37.635Z,20.18
2022-09-12T15:48:13.684Z,20.17
2022-09-12T15:50:42.580Z,20.01
2022-09-12T15:53:16.509Z,20.06
2022-09-12T15:55:48.651Z,19.91
2022-09-12T15:58:17.816Z,19.92
2022-09-12T16:00:46.148Z,19.98
2022-09-12T16:03:25.657Z,19.92
2022-09-12T16:06:05.574Z,19.92
2022-09-12T16:08:35.648Z,19.91
2022-09-12T16:11:29.446Z,19.83
2022-09-12T16:13:58.496Z,19.83
2022-09-12T16:16:28.052Z,19.83
2022-09-12T16:18:57.915Z,19.71
2022-09-12T16:21:39.119Z,19.71
2022-09-12T16:24:10.035Z,19.70
2022-09-12T16:26:51.041Z,19.73
2022-09-12T16:29:21.383Z,19.52
2022-09-12T16:31:58.707Z,19.34
2022-09-12T16:34:36.475Z,19.35
2022-09-12T16:37:14.190Z,19.38
2022-09-12T16:39:45.383Z,19.35
2022-09-12T16:42:15.639Z,19.29
2022-09-12T16:44:53.115Z,19.19
2022-09-12T16:47:25.017Z,19.28
2022-09-12T16:52:39.072Z,19.52
2022-09-12T16:55:11.834Z,19.55
2022-09-12T16:57:40.562Z,19.63
2022-09-12T17:00:10.336Z,19.63
2022-09-12T17:02:42.452Z,19.57
2022-09-12T17:05:10.762Z,19.49
2022-09-12T17:07:43.919Z,19.41
2022-09-12T17:10:22.234Z,19.38
2022-09-12T17:12:58.925Z,19.30
2022-09-12T17:15:29.479Z,19.30
2022-09-12T17:18:04.893Z,19.26
2022-09-12T17:23:22.285Z,19.23
2022-09-12T17:25:54.927Z,19.19
2022-09-12T17:28:24.431Z,19.32
2022-09-12T17:31:09.334Z,19.40
2022-09-12T17:33:43.013Z,19.41
2022-09-12T17:36:18.600Z,19.37
2022-09-12T17:38:48.301Z,19.25
2022-09-12T17:41:27.936Z,19.17
2022-09-12T17:44:00.955Z,19.22
2022-09-12T17:46:46.213Z,19.30
2022-09-12T17:49:22.692Z,19.32
2022-09-12T17:51:57.503Z,19.30
2022-09-12T17:54:27.528Z,19.23
2022-09-12T17:56:57.473Z,19.23
2022-09-12T17:59:27.175Z,19.16
2022-09-12T18:02:13.239Z,19.12
2022-09-12T18:04:48.982Z,18.98
2022-09-12T18:07:19.828Z,18.98
2022-09-12T18:09:51.602Z,19.12
2022-09-12T18:12:20.497Z,19.20
2022-09-12T18:14:51.905Z,19.30
2022-09-12T18:17:26.053Z,19.34
2022-09-12T18:20:00.645Z,19.35
2022-09-12T18:22:33.964Z,19.31
2022-09-12T18:25:08.029Z,19.32
2022-09-12T18:27:36.947Z,19.24
2022-09-12T18:30:21.484Z,19.18
2022-09-12T18:35:51.526Z,19.17
2022-09-12T18:38:38.049Z,19.08
2022-09-12T18:41:10.511Z,19.07
2022-09-12T18:43:42.404Z,18.97
2022-09-12T18:46:16.648Z,18.79
2022-09-12T18:48:47.041Z,18.56
2022-09-12T18:51:22.577Z,18.33
2022-09-12T18:53:57.662Z,18.25
2022-09-12T18:56:35.205Z,17.86
2022-09-12T18:59:06.280Z,17.63
2022-09-12T19:01:38.796Z,17.42
2022-09-12T19:04:17.210Z,17.23
2022-09-12T19:06:48.718Z,17.10
2022-09-12T19:09:20.843Z,16.97
2022-09-12T19:11:58.797Z,16.90
2022-09-12T19:14:27.641Z,16.80
2022-09-12T19:16:57.049Z,16.70
2022-09-12T19:19:25.083Z,16.62
2022-09-12T19:21:56.151Z,16.58
2022-09-12T19:24:25.892Z,16.56
2022-09-12T19:26:58.319Z,16.54
2022-09-12T19:29:26.579Z,16.62
2022-09-12T19:32:04.079Z,16.59
2022-09-12T19:34:31.997Z,16.59
2022-09-12T19:37:00.799Z,16.62
2022-09-12T19:39:29.574Z,16.71
2022-09-12T19:42:03.088Z,16.72
2022-09-12T19:44:33.322Z,16.66
2022-09-12T19:47:02.152Z,16.58
2022-09-12T19:49:31.795Z,16.51
2022-09-12T19:52:03.764Z,16.59
2022-09-12T19:54:32.557Z,16.59
2022-09-12T19:57:01.429Z,16.46
2022-09-12T19:59:33.730Z,16.59
2022-09-12T20:02:15.080Z,16.58
2022-09-12T20:04:48.653Z,16.46
2022-09-12T20:07:21.772Z,16.47
2022-09-12T20:09:55.398Z,16.41
2022-09-12T20:12:24.462Z,16.51
2022-09-12T20:14:57.107Z,16.44
2022-09-12T20:17:28.353Z,16.47
2022-09-12T20:20:07.279Z,16.34
2022-09-12T20:22:40.138Z,16.37
2022-09-12T20:25:13.233Z,16.28
2022-09-12T20:27:46.081Z,16.15
2022-09-12T20:30:15.788Z,16.14
2022-09-12T20:32:44.776Z,16.15
2022-09-12T20:35:14.591Z,16.08
2022-09-12T20:37:45.392Z,16.10
2022-09-12T20:40:14.304Z,16.10
2022-09-12T20:45:38.492Z,16.02
2022-09-12T20:48:07.713Z,16.10
2022-09-12T20:50:37.742Z,15.97
2022-09-12T20:53:09.115Z,15.93
2022-09-12T20:55:45.167Z,15.94
2022-09-12T20:58:14.224Z,15.89
2022-09-12T21:00:43.929Z,15.98
2022-09-12T21:03:14.569Z,15.93
2022-09-12T21:05:45.264Z,15.89
2022-09-12T21:08:14.847Z,15.93
2022-09-12T21:10:45.236Z,15.89
2022-09-12T21:13:14.443Z,15.86
2022-09-12T21:15:45.389Z,15.85
2022-09-12T21:18:14.791Z,15.98
2022-09-12T21:20:43.110Z,15.92
2022-09-12T21:23:11.702Z,15.82
2022-09-12T21:25:52.065Z,15.80
2022-09-12T21:28:23.207Z,15.80
2022-09-12T21:30:51.844Z,15.77
2022-09-12T21:33:22.215Z,15.68
2022-09-12T21:35:51.649Z,15.69
2022-09-12T21:38:22.802Z,15.71
2022-09-12T21:40:51.022Z,15.65
2022-09-12T21:43:19.924Z,15.82
2022-09-12T21:45:48.717Z,15.74
2022-09-12T21:48:19.562Z,15.82
2022-09-12T21:50:51.089Z,15.72
2022-09-12T21:53:21.629Z,15.67
2022-09-12T21:55:51.714Z,15.76
2022-09-12T21:58:21.910Z,15.66
2022-09-12T22:00:52.004Z,15.59
2022-09-12T22:03:21.965Z,15.58
2022-09-12T22:06:04.545Z,15.53
2022-09-12T22:08:35.638Z,15.53
2022-09-12T22:11:10.356Z,15.36
2022-09-12T22:13:44.101Z,15.53
2022-09-12T22:16:12.594Z,15.56
2022-09-12T22:18:41.767Z,15.52
2022-09-12T22:21:18.947Z,15.39
2022-09-12T22:24:08.768Z,15.38
2022-09-12T22:26:47.800Z,15.32
2022-09-12T22:29:16.799Z,15.31
2022-09-12T22:31:45.102Z,15.42
2022-09-12T22:34:14.445Z,15.36
2022-09-12T22:36:43.151Z,15.44
2022-09-12T22:39:12.086Z,15.60
2022-09-12T22:41:41.635Z,15.72
2022-09-12T22:44:12.019Z,15.63
2022-09-12T22:46:41.127Z,15.70
2022-09-12T22:49:09.664Z,15.62
2022-09-12T22:51:39.335Z,15.55
2022-09-12T22:54:11.568Z,15.51
2022-09-12T22:56:42.660Z,15.54
2022-09-12T22:59:11.486Z,15.50
2022-09-12T23:01:42.982Z,15.57
2022-09-12T23:04:12.257Z,15.61
2022-09-12T23:06:41.987Z,15.63
2022-09-12T23:09:14.522Z,15.57
2022-09-12T23:11:43.143Z,15.51
2022-09-12T23:14:12.676Z,15.52
2022-09-12T23:16:46.146Z,15.54
2022-09-12T23:19:16.306Z,15.48
2022-09-12T23:21:45.137Z,15.47
2022-09-12T23:24:14.376Z,15.50
2022-09-12T23:26:41.993Z,15.43
2022-09-12T23:29:13.091Z,15.37
2022-09-12T23:34:29.144Z,15.36
2022-09-12T23:37:00.172Z,15.31
2022-09-12T23:39:29.985Z,15.17
2022-09-12T23:41:58.959Z,15.25
2022-09-12T23:44:30.981Z,15.32
2022-09-12T23:47:02.249Z,15.34
2022-09-12T23:49:32.786Z,15.26
2022-09-12T23:52:02.605Z,15.24
2022-09-12T23:54:35.889Z,15.30
2022-09-12T23:57:05.778Z,15.19
2022-09-12T23:59:34.151Z,15.18
